메인 페이지
METAR-TAF:

METAR-TAF

공항 :

General William J. Fox Airfield

랭커스터, 캘리포니아, 미국

위도: 34-44-27N, 경도: 118-13-08W, 고도: 715m

현재 날씨관측

예보는 54분 전, 18:56시(UTC)에 발표되었습니다.
남서11kt, 순간 최대 풍속 20kt
온도 32°C
습도 16%
기압 1014 hPa
시정: 16.1km
맑음

METAR: KWJF 131856Z 23011G20KT 10SM CLR 32/03 A2995 RMK AO2 SLP120 T03170033

시각: 12:50 (19:50 UTC)

예보

예보는 2 시간 30분 전, 17:20시(UTC)에 발표되었습니다.
예보 대상 시간: 13일 18시부터 14일 18시까지 (UTC)
서남서12kt
시정: 10km
맑음
13일 2000시부터 (UTC)
서남서18kt, 순간 최대 풍속 28kt
시정: 10km
맑음
14일 0300시부터 (UTC)
서남서12kt
시정: 10km
맑음
14일 1200시부터 (UTC)
6kt
시정: 10km
맑음

TAF: KWJF 131720Z 1318/1418 25012KT P6SM SKC FM132000 25018G28KT P6SM SKC FM140300 25012KT P6SM SKC FM141200 27006KT P6SM SKC

4,000개 이상의 공항 관측 자료 및 예보 (METAR 및 TAF 보고).

지도상에서 검색 가능한 기상관측소가 노란 점과 빨간 점으로 표시되어 있습니다.

기상관측소 명을 보려면 표시 위로 마우스를 이동하세요.

날씨 관측과 예보를 보려면 클릭하세요.

지도 변경 : 확대하려면 엑스 표시가 있는 녹색 버튼, 축소하려면 빼기 표시가 있는 녹색 버튼, 다음 페이지의 지도를 보려면 녹색 화살표를 클릭하세요.


METAR-TAF: